createdAt,value
2022-11-27T00:01:50.661Z,4.97
2022-11-27T00:04:17.259Z,5.37
2022-11-27T00:06:43.780Z,5.23
2022-11-27T00:09:13.675Z,4.97
2022-11-27T00:11:40.417Z,6.10
2022-11-27T00:14:07.038Z,5.90
2022-11-27T00:16:33.627Z,5.57
2022-11-27T00:19:00.198Z,4.83
2022-11-27T00:21:28.085Z,4.97
2022-11-27T00:23:55.595Z,4.97
2022-11-27T00:26:22.188Z,5.40
2022-11-27T00:28:49.072Z,5.17
2022-11-27T00:31:17.853Z,5.07
2022-11-27T00:33:44.359Z,5.23
2022-11-27T00:36:11.527Z,5.40
2022-11-27T00:38:39.205Z,4.87
2022-11-27T00:41:07.089Z,4.70
2022-11-27T00:43:43.551Z,4.97
2022-11-27T00:46:12.104Z,6.00
2022-11-27T00:48:38.696Z,6.67
2022-11-27T00:51:07.518Z,5.93
2022-11-27T00:53:34.301Z,5.17
2022-11-27T00:56:01.251Z,5.57
2022-11-27T00:58:27.876Z,5.50
2022-11-27T01:00:55.273Z,5.00
2022-11-27T01:03:22.171Z,4.80
2022-11-27T01:05:49.090Z,5.53
2022-11-27T01:08:15.503Z,6.00
2022-11-27T01:10:53.325Z,5.33
2022-11-27T01:13:28.145Z,5.53
2022-11-27T01:16:04.725Z,5.10
2022-11-27T01:18:31.549Z,5.27
2022-11-27T01:20:57.921Z,5.33
2022-11-27T01:23:24.767Z,5.07
2022-11-27T01:25:53.347Z,5.87
2022-11-27T01:28:20.860Z,5.30
2022-11-27T01:30:47.373Z,5.13
2022-11-27T01:33:13.776Z,5.20
2022-11-27T01:35:40.181Z,5.03
2022-11-27T01:38:06.746Z,5.33
2022-11-27T01:40:33.870Z,4.83
2022-11-27T01:43:00.242Z,5.30
2022-11-27T01:45:26.767Z,6.00
2022-11-27T01:47:55.160Z,5.07
2022-11-27T01:50:39.075Z,5.47
2022-11-27T01:53:17.577Z,4.90
2022-11-27T01:55:48.325Z,4.13
2022-11-27T01:58:17.319Z,4.32
2022-11-27T02:00:43.693Z,4.50
2022-11-27T02:03:10.240Z,3.90
2022-11-27T02:05:36.851Z,3.40
2022-11-27T02:08:05.972Z,3.53
2022-11-27T02:10:35.461Z,3.50
2022-11-27T02:13:09.490Z,3.70
2022-11-27T02:15:54.660Z,4.07
2022-11-27T02:18:21.088Z,5.43
2022-11-27T02:20:56.701Z,3.50
2022-11-27T02:23:23.204Z,3.53
2022-11-27T02:26:08.579Z,3.90
2022-11-27T02:28:55.367Z,3.03
2022-11-27T02:31:37.564Z,2.63
2022-11-27T02:34:25.011Z,3.50
2022-11-27T02:37:14.774Z,3.67
2022-11-27T02:39:44.819Z,3.67
2022-11-27T02:42:16.892Z,4.40
2022-11-27T02:44:48.869Z,3.50
2022-11-27T02:47:15.960Z,2.30
2022-11-27T02:49:43.059Z,2.20
2022-11-27T02:52:12.069Z,2.53
2022-11-27T02:54:40.626Z,2.77
2022-11-27T02:57:08.295Z,2.90
2022-11-27T02:59:36.133Z,2.60
2022-11-27T03:02:05.466Z,2.70
2022-11-27T03:04:34.621Z,3.00
2022-11-27T03:07:07.244Z,3.40
2022-11-27T03:09:38.932Z,2.67
2022-11-27T03:12:05.970Z,2.20
2022-11-27T03:14:33.550Z,2.10
2022-11-27T03:17:05.969Z,2.30
2022-11-27T03:19:51.377Z,2.23
2022-11-27T03:22:18.971Z,2.00
2022-11-27T03:24:45.556Z,2.50
2022-11-27T03:27:15.324Z,2.50
2022-11-27T03:29:45.213Z,2.63
2022-11-27T03:32:11.714Z,2.17
2022-11-27T03:34:39.602Z,2.27
2022-11-27T03:37:06.391Z,3.57
2022-11-27T03:39:33.019Z,3.07
2022-11-27T03:42:18.236Z,3.90
2022-11-27T03:44:56.572Z,2.30
2022-11-27T03:47:31.411Z,2.53
2022-11-27T03:50:07.400Z,2.80
2022-11-27T03:53:06.370Z,2.80
2022-11-27T03:55:35.683Z,2.30
2022-11-27T03:58:06.851Z,2.30
2022-11-27T04:02:59.700Z,2.30
2022-11-27T04:05:26.128Z,1.90
2022-11-27T04:07:52.630Z,2.13
2022-11-27T04:10:19.652Z,1.80
2022-11-27T04:12:46.136Z,1.80
2022-11-27T04:15:12.970Z,1.70
2022-11-27T04:17:39.429Z,1.67
2022-11-27T04:20:06.731Z,2.53
2022-11-27T04:22:34.664Z,2.20
2022-11-27T04:25:01.231Z,1.83
2022-11-27T04:27:27.713Z,2.17
2022-11-27T04:29:54.091Z,3.07
2022-11-27T04:32:20.499Z,2.80
2022-11-27T04:34:46.890Z,3.00
2022-11-27T04:37:13.640Z,3.80
2022-11-27T04:39:40.180Z,2.50
2022-11-27T04:42:06.619Z,2.60
2022-11-27T04:44:33.062Z,2.70
2022-11-27T04:46:59.635Z,4.03
2022-11-27T04:49:26.058Z,3.00
2022-11-27T04:51:52.535Z,2.87
2022-11-27T04:54:19.227Z,3.73
2022-11-27T04:56:45.613Z,2.70
2022-11-27T04:59:11.989Z,3.10
2022-11-27T05:01:38.411Z,3.33
2022-11-27T05:04:04.879Z,3.27
2022-11-27T05:06:31.440Z,3.20
2022-11-27T05:09:01.885Z,2.53
2022-11-27T05:11:29.003Z,3.15
2022-11-27T05:14:16.042Z,2.70
2022-11-27T05:16:44.328Z,2.83
2022-11-27T05:19:11.111Z,2.80
2022-11-27T05:21:37.777Z,2.80
2022-11-27T05:24:04.621Z,2.60
2022-11-27T05:26:31.056Z,2.60
2022-11-27T05:28:57.656Z,3.10
2022-11-27T05:31:24.229Z,3.20
2022-11-27T05:33:50.829Z,3.00
2022-11-27T05:36:17.282Z,3.03
2022-11-27T05:38:43.754Z,2.80
2022-11-27T05:41:10.158Z,3.03
2022-11-27T05:43:36.550Z,2.97
2022-11-27T05:46:06.848Z,3.20
2022-11-27T05:48:33.862Z,3.57
2022-11-27T05:51:01.585Z,3.40
2022-11-27T05:53:28.144Z,3.10
2022-11-27T05:55:54.677Z,3.23
2022-11-27T05:58:21.197Z,3.27
2022-11-27T06:00:47.754Z,3.80
2022-11-27T06:03:14.792Z,3.60
2022-11-27T06:05:41.439Z,3.17
2022-11-27T06:08:07.864Z,3.73
2022-11-27T06:10:34.330Z,3.20
2022-11-27T06:13:00.794Z,3.03
2022-11-27T06:15:27.345Z,2.80
2022-11-27T06:17:53.923Z,2.70
2022-11-27T06:20:20.522Z,2.70
2022-11-27T06:22:47.400Z,2.70
2022-11-27T06:25:13.881Z,2.53
2022-11-27T06:27:40.369Z,2.50
2022-11-27T06:30:07.340Z,2.93
2022-11-27T06:32:33.828Z,2.77
2022-11-27T06:35:01.576Z,2.97
2022-11-27T06:37:28.005Z,3.27
2022-11-27T06:39:54.397Z,2.90
2022-11-27T06:42:20.953Z,2.77
2022-11-27T06:44:47.443Z,2.63
2022-11-27T06:47:13.959Z,2.63
2022-11-27T06:49:40.354Z,2.57
2022-11-27T06:52:06.776Z,2.90
2022-11-27T06:54:33.479Z,2.87
2022-11-27T06:56:59.954Z,2.90
2022-11-27T06:59:26.441Z,3.03
2022-11-27T07:01:52.929Z,3.10
2022-11-27T07:04:19.505Z,3.40
2022-11-27T07:06:46.197Z,3.70
2022-11-27T07:09:12.677Z,3.70
2022-11-27T07:11:39.696Z,3.90
2022-11-27T07:14:06.499Z,3.70
2022-11-27T07:16:35.670Z,4.43
2022-11-27T07:19:03.725Z,3.83
2022-11-27T07:21:30.572Z,3.73
2022-11-27T07:23:57.393Z,2.90
2022-11-27T07:26:28.000Z,3.50
2022-11-27T07:28:54.738Z,3.30
2022-11-27T07:31:22.833Z,3.43
2022-11-27T07:33:49.478Z,3.07
2022-11-27T07:36:18.069Z,2.57
2022-11-27T07:38:45.043Z,3.00
2022-11-27T07:41:12.045Z,3.63
2022-11-27T07:43:39.004Z,3.80
2022-11-27T07:46:06.748Z,3.80
2022-11-27T07:48:33.433Z,4.20
2022-11-27T07:50:59.933Z,5.23
2022-11-27T07:53:26.358Z,4.87
2022-11-27T07:55:52.928Z,4.70
2022-11-27T07:58:19.478Z,4.83
2022-11-27T08:00:45.893Z,4.80
2022-11-27T08:03:12.413Z,5.03
2022-11-27T08:05:38.835Z,6.70
2022-11-27T08:08:05.299Z,5.27
2022-11-27T08:10:34.800Z,5.70
2022-11-27T08:13:01.432Z,4.83
2022-11-27T08:15:27.816Z,4.87
2022-11-27T08:17:54.264Z,5.07
2022-11-27T08:20:21.031Z,4.77
2022-11-27T08:22:47.545Z,4.20
2022-11-27T08:25:14.336Z,4.03
2022-11-27T08:27:40.985Z,3.40
2022-11-27T08:30:07.874Z,3.67
2022-11-27T08:32:34.378Z,3.20
2022-11-27T08:35:02.480Z,2.77
2022-11-27T08:37:28.887Z,3.17
2022-11-27T08:39:55.398Z,2.90
2022-11-27T08:42:21.865Z,3.00
2022-11-27T08:44:48.253Z,2.63
2022-11-27T08:47:16.793Z,2.83
2022-11-27T08:49:46.290Z,3.30
2022-11-27T08:52:12.876Z,2.90
2022-11-27T08:54:39.590Z,2.93
2022-11-27T08:57:06.662Z,2.60
2022-11-27T08:59:33.082Z,2.40
2022-11-27T09:01:59.481Z,3.00
2022-11-27T09:04:26.090Z,3.43
2022-11-27T09:06:57.924Z,4.03
2022-11-27T09:09:25.117Z,3.17
2022-11-27T09:11:53.770Z,2.83
2022-11-27T09:14:20.357Z,4.10
2022-11-27T09:16:46.855Z,5.80
2022-11-27T09:19:13.396Z,5.03
2022-11-27T09:21:39.935Z,3.07
2022-11-27T09:24:06.625Z,2.77
2022-11-27T09:26:33.175Z,2.70
2022-11-27T09:28:59.788Z,3.00
2022-11-27T09:31:26.534Z,3.37
2022-11-27T09:33:53.303Z,3.30
2022-11-27T09:36:20.794Z,3.70
2022-11-27T09:38:47.431Z,2.87
2022-11-27T09:41:13.915Z,2.70
2022-11-27T09:43:48.874Z,2.63
2022-11-27T09:46:20.553Z,2.50
2022-11-27T09:48:48.870Z,2.07
2022-11-27T09:51:19.966Z,2.30
2022-11-27T09:53:49.153Z,2.50
2022-11-27T09:56:17.227Z,2.30
2022-11-27T09:58:46.349Z,2.80
2022-11-27T10:01:13.650Z,2.57
2022-11-27T10:03:41.015Z,2.13
2022-11-27T10:06:28.006Z,2.67
2022-11-27T10:09:13.047Z,3.10
2022-11-27T10:11:50.753Z,2.33
2022-11-27T10:14:35.276Z,2.40
2022-11-27T10:17:01.690Z,2.50
2022-11-27T10:19:40.277Z,1.90
2022-11-27T10:22:36.241Z,1.60
2022-11-27T10:25:16.977Z,2.17
2022-11-27T10:27:52.509Z,2.00
2022-11-27T10:30:20.445Z,2.07
2022-11-27T10:32:55.817Z,1.73
2022-11-27T10:35:30.387Z,2.03
2022-11-27T10:38:03.686Z,2.23
2022-11-27T10:40:37.992Z,2.27
2022-11-27T10:45:57.632Z,2.00
2022-11-27T10:48:24.429Z,2.00
2022-11-27T10:50:51.388Z,2.47
2022-11-27T10:53:29.116Z,2.43
2022-11-27T10:56:01.977Z,2.30
2022-11-27T10:58:31.278Z,2.13
2022-11-27T11:01:17.196Z,2.33
2022-11-27T11:03:43.733Z,2.30
2022-11-27T11:06:22.740Z,2.30
2022-11-27T11:09:02.099Z,2.30
2022-11-27T11:11:28.521Z,2.27
2022-11-27T11:13:55.811Z,2.10
2022-11-27T11:16:34.783Z,2.43
2022-11-27T11:19:02.639Z,2.60
2022-11-27T11:21:31.843Z,2.60
2022-11-27T11:24:02.350Z,2.83
2022-11-27T11:26:34.040Z,2.38
2022-11-27T11:29:02.021Z,2.30
2022-11-27T11:31:39.061Z,2.00
2022-11-27T11:34:14.878Z,2.20
2022-11-27T11:36:42.360Z,2.37
2022-11-27T11:39:18.738Z,2.20
2022-11-27T11:41:46.020Z,3.85
2022-11-27T11:44:30.869Z,3.77
2022-11-27T11:46:57.332Z,2.72
2022-11-27T11:49:27.793Z,2.80
2022-11-27T11:52:12.556Z,3.10
2022-11-27T11:54:56.524Z,3.35
2022-11-27T11:57:50.018Z,2.70
2022-11-27T12:00:17.732Z,2.72
2022-11-27T12:02:56.090Z,2.75
2022-11-27T12:05:25.476Z,2.55
2022-11-27T12:08:10.850Z,2.70
2022-11-27T12:10:37.321Z,2.58
2022-11-27T12:13:22.262Z,2.25
2022-11-27T12:16:09.548Z,3.00
2022-11-27T12:18:50.749Z,3.20
2022-11-27T12:21:17.160Z,2.20
2022-11-27T12:23:43.548Z,1.98
2022-11-27T12:26:16.322Z,2.35
2022-11-27T12:28:45.773Z,2.00
2022-11-27T12:31:19.990Z,2.38
2022-11-27T12:33:55.466Z,2.33
2022-11-27T12:36:40.799Z,2.92
2022-11-27T12:39:15.789Z,2.20
2022-11-27T12:41:46.960Z,2.22
2022-11-27T12:44:21.136Z,2.00
2022-11-27T12:46:47.535Z,2.25
2022-11-27T12:49:26.636Z,2.30
2022-11-27T12:52:11.717Z,1.83
2022-11-27T12:54:43.475Z,2.00
2022-11-27T12:57:13.656Z,1.80
2022-11-27T12:59:42.470Z,2.10
2022-11-27T13:02:08.987Z,2.10
2022-11-27T13:04:35.636Z,2.05
2022-11-27T13:07:09.092Z,1.73
2022-11-27T13:09:49.721Z,2.17
2022-11-27T13:12:20.590Z,1.98
2022-11-27T13:14:52.779Z,2.00
2022-11-27T13:17:19.533Z,2.00
2022-11-27T13:19:47.560Z,1.83
2022-11-27T13:22:21.704Z,1.77
2022-11-27T13:24:48.388Z,2.08
2022-11-27T13:27:19.223Z,1.98
2022-11-27T13:29:45.748Z,1.88
2022-11-27T13:32:20.115Z,1.95
2022-11-27T13:34:47.205Z,2.60
2022-11-27T13:37:25.726Z,4.03
2022-11-27T13:39:58.446Z,3.70
2022-11-27T13:42:25.569Z,4.93
2022-11-27T13:45:03.059Z,4.07
2022-11-27T13:47:30.034Z,2.60
2022-11-27T13:49:58.736Z,2.50
2022-11-27T13:52:25.402Z,2.15
2022-11-27T13:55:02.475Z,2.42
2022-11-27T13:57:30.087Z,2.47
2022-11-27T14:00:01.567Z,2.25
2022-11-27T14:02:42.382Z,2.20
2022-11-27T14:05:10.530Z,1.83
2022-11-27T14:07:41.660Z,2.30
2022-11-27T14:10:10.283Z,2.20
2022-11-27T14:12:37.124Z,2.42
2022-11-27T14:15:06.899Z,2.47
2022-11-27T14:17:34.792Z,2.35
2022-11-27T14:20:06.205Z,2.40
2022-11-27T14:22:32.773Z,2.50
2022-11-27T14:24:59.268Z,2.65
2022-11-27T14:27:28.197Z,2.70
2022-11-27T14:29:54.641Z,2.63
2022-11-27T14:32:21.290Z,2.40
2022-11-27T14:34:48.860Z,2.60
2022-11-27T14:37:22.880Z,2.83
2022-11-27T14:39:49.399Z,4.15
2022-11-27T14:42:23.063Z,5.30
2022-11-27T14:45:01.448Z,5.05
2022-11-27T14:47:27.921Z,5.22
2022-11-27T14:49:56.154Z,3.75
2022-11-27T14:52:23.147Z,2.40
2022-11-27T14:54:49.782Z,3.20
2022-11-27T14:57:24.229Z,3.15
2022-11-27T15:00:00.922Z,3.80
2022-11-27T15:02:36.980Z,3.17
2022-11-27T15:05:06.858Z,4.88
2022-11-27T15:07:41.909Z,4.50
2022-11-27T15:10:24.313Z,3.15
2022-11-27T15:12:50.941Z,3.22
2022-11-27T15:15:21.409Z,3.05
2022-11-27T15:17:52.861Z,2.75
2022-11-27T15:20:42.467Z,3.20
2022-11-27T15:23:17.605Z,3.03
2022-11-27T15:25:45.624Z,3.55
2022-11-27T15:28:27.702Z,3.55
2022-11-27T15:30:54.425Z,4.85
2022-11-27T15:33:24.846Z,4.60
2022-11-27T15:35:53.905Z,7.13
2022-11-27T15:38:21.195Z,7.63
2022-11-27T15:40:56.847Z,6.55
2022-11-27T15:43:23.240Z,5.25
2022-11-27T15:45:51.111Z,4.25
2022-11-27T15:48:18.537Z,3.38
2022-11-27T15:50:49.999Z,3.38
2022-11-27T15:53:17.840Z,3.63
2022-11-27T15:55:44.324Z,3.78
2022-11-27T15:58:10.823Z,3.30
2022-11-27T16:00:37.269Z,3.20
2022-11-27T16:03:03.776Z,3.50
2022-11-27T16:05:30.399Z,3.00
2022-11-27T16:07:57.741Z,3.50
2022-11-27T16:10:24.491Z,3.30
2022-11-27T16:12:54.849Z,3.33
2022-11-27T16:15:23.210Z,3.50
2022-11-27T16:17:50.432Z,3.58
2022-11-27T16:20:17.083Z,3.65
2022-11-27T16:22:43.537Z,4.20
2022-11-27T16:25:09.975Z,5.18
2022-11-27T16:27:36.521Z,6.22
2022-11-27T16:30:03.265Z,5.00
2022-11-27T16:32:29.754Z,4.73
2022-11-27T16:34:56.324Z,4.37
2022-11-27T16:37:23.313Z,6.20
2022-11-27T16:39:49.824Z,5.70
2022-11-27T16:42:16.225Z,5.03
2022-11-27T16:44:44.225Z,4.23
2022-11-27T16:47:11.151Z,2.70
2022-11-27T16:49:37.893Z,4.97
2022-11-27T16:52:04.433Z,3.27
2022-11-27T16:54:30.919Z,3.93
2022-11-27T16:56:57.386Z,3.10
2022-11-27T16:59:23.852Z,2.60
2022-11-27T17:01:50.353Z,2.60
2022-11-27T17:04:19.510Z,2.70
2022-11-27T17:06:46.937Z,2.88
2022-11-27T17:09:13.741Z,3.28
2022-11-27T17:11:44.492Z,3.83
2022-11-27T17:14:11.506Z,5.20
2022-11-27T17:16:41.176Z,6.20
2022-11-27T17:19:09.380Z,8.50
2022-11-27T17:21:35.808Z,9.27
2022-11-27T17:24:03.954Z,5.18
2022-11-27T17:26:31.168Z,6.20
2022-11-27T17:28:57.725Z,13.13
2022-11-27T17:31:25.418Z,6.60
2022-11-27T17:33:56.863Z,6.30
2022-11-27T17:36:23.984Z,5.33
2022-11-27T17:38:51.768Z,5.63
2022-11-27T17:41:18.317Z,3.63
2022-11-27T17:43:44.695Z,3.63
2022-11-27T17:46:15.950Z,2.70
2022-11-27T17:51:08.891Z,2.70
2022-11-27T17:53:35.446Z,2.43
2022-11-27T17:56:05.615Z,2.73
2022-11-27T17:58:32.115Z,2.27
2022-11-27T18:00:58.868Z,1.90
2022-11-27T18:03:25.821Z,2.43
2022-11-27T18:05:52.291Z,3.77
2022-11-27T18:08:18.749Z,3.00
2022-11-27T18:10:45.518Z,3.03
2022-11-27T18:13:11.948Z,3.70
2022-11-27T18:15:38.428Z,4.60
2022-11-27T18:18:05.164Z,4.30
2022-11-27T18:20:31.610Z,3.50
2022-11-27T18:22:58.043Z,3.03
2022-11-27T18:25:24.523Z,3.40
2022-11-27T18:27:50.919Z,3.60
2022-11-27T18:30:17.525Z,3.97
2022-11-27T18:32:44.386Z,4.00
2022-11-27T18:35:10.915Z,4.00
2022-11-27T18:37:38.534Z,2.80
2022-11-27T18:40:06.537Z,2.30
2022-11-27T18:42:33.089Z,2.30
2022-11-27T18:44:59.712Z,3.03
2022-11-27T18:47:26.456Z,3.13
2022-11-27T18:49:54.419Z,4.90
2022-11-27T18:52:21.057Z,3.93
2022-11-27T18:54:47.450Z,2.60
2022-11-27T18:57:13.819Z,1.70
2022-11-27T18:59:42.990Z,1.90
2022-11-27T19:02:10.352Z,2.10
2022-11-27T19:04:37.631Z,2.40
2022-11-27T19:07:04.130Z,2.13
2022-11-27T19:09:30.553Z,1.90
2022-11-27T19:11:56.986Z,1.43
2022-11-27T19:14:23.523Z,1.43
2022-11-27T19:16:50.739Z,1.60
2022-11-27T19:22:08.527Z,1.30
2022-11-27T19:24:35.071Z,1.10
2022-11-27T19:27:01.552Z,1.10
2022-11-27T19:29:28.229Z,0.90
2022-11-27T19:31:57.612Z,1.20
2022-11-27T19:34:24.079Z,1.70
2022-11-27T19:36:50.725Z,1.10
2022-11-27T19:39:17.273Z,1.10
2022-11-27T19:41:44.077Z,1.40
2022-11-27T19:44:11.984Z,1.13
2022-11-27T19:46:39.015Z,1.60
2022-11-27T19:49:07.135Z,4.20
2022-11-27T19:51:35.099Z,2.20
2022-11-27T19:54:05.649Z,1.70
2022-11-27T19:56:36.522Z,1.30
2022-11-27T19:59:03.148Z,3.37
2022-11-27T20:01:29.942Z,17.07
2022-11-27T20:03:56.438Z,7.33
2022-11-27T20:06:23.984Z,4.20
2022-11-27T20:08:51.168Z,3.53
2022-11-27T20:11:19.236Z,2.80
2022-11-27T20:13:45.729Z,3.00
2022-11-27T20:16:13.914Z,1.57
2022-11-27T20:18:40.812Z,1.20
2022-11-27T20:21:08.624Z,1.10
2022-11-27T20:23:35.581Z,2.00
2022-11-27T20:26:08.865Z,1.27
2022-11-27T20:28:35.880Z,1.33
2022-11-27T20:31:03.017Z,1.37
2022-11-27T20:33:30.554Z,1.20
2022-11-27T20:35:57.997Z,2.43
2022-11-27T20:38:26.409Z,1.50
2022-11-27T20:40:52.876Z,1.00
2022-11-27T20:43:19.650Z,2.90
2022-11-27T20:45:46.077Z,6.70
2022-11-27T20:48:12.513Z,3.10
2022-11-27T20:50:39.852Z,2.30
2022-11-27T20:53:06.381Z,1.13
2022-11-27T20:55:33.666Z,1.00
2022-11-27T20:58:00.037Z,1.23
2022-11-27T21:00:26.973Z,1.17
2022-11-27T21:02:53.580Z,1.20
2022-11-27T21:05:20.157Z,1.20
2022-11-27T21:07:46.704Z,1.00
2022-11-27T21:10:14.211Z,0.90
2022-11-27T21:12:40.999Z,0.80
2022-11-27T21:15:07.865Z,1.00
2022-11-27T21:17:34.332Z,1.10
2022-11-27T21:20:01.573Z,1.20
2022-11-27T21:22:28.266Z,1.20
2022-11-27T21:24:54.921Z,1.80
2022-11-27T21:27:21.577Z,2.50
2022-11-27T21:29:48.026Z,2.60
2022-11-27T21:32:14.744Z,2.60
2022-11-27T21:34:41.374Z,2.20
2022-11-27T21:37:08.031Z,1.70
2022-11-27T21:39:34.531Z,1.27
2022-11-27T21:42:00.918Z,1.07
2022-11-27T21:44:27.392Z,1.00
2022-11-27T21:46:53.891Z,1.00
2022-11-27T21:49:20.601Z,0.90
2022-11-27T21:51:49.936Z,1.10
2022-11-27T21:54:17.655Z,1.97
2022-11-27T21:56:44.186Z,2.43
2022-11-27T21:59:12.177Z,3.10
2022-11-27T22:01:38.789Z,2.20
2022-11-27T22:04:05.501Z,1.47
2022-11-27T22:06:35.917Z,1.13
2022-11-27T22:09:03.088Z,1.05
2022-11-27T22:11:32.437Z,0.97
2022-11-27T22:14:02.957Z,1.20
2022-11-27T22:16:30.449Z,1.10
2022-11-27T22:18:57.968Z,1.50
2022-11-27T22:21:24.531Z,1.70
2022-11-27T22:23:51.017Z,1.70
2022-11-27T22:26:18.955Z,1.97
2022-11-27T22:28:45.815Z,1.70
2022-11-27T22:31:19.314Z,1.30
2022-11-27T22:33:46.303Z,1.40
2022-11-27T22:36:26.462Z,1.30
2022-11-27T22:38:53.904Z,2.10
2022-11-27T22:41:21.530Z,2.37
2022-11-27T22:43:47.970Z,1.43
2022-11-27T22:46:19.256Z,2.70
2022-11-27T22:51:12.544Z,2.70
2022-11-27T22:53:39.521Z,2.40
2022-11-27T22:56:10.157Z,3.30
2022-11-27T22:58:41.193Z,2.75
2022-11-27T23:01:09.372Z,2.33
2022-11-27T23:03:36.037Z,2.40
2022-11-27T23:06:02.580Z,2.13
2022-11-27T23:08:29.118Z,1.63
2022-11-27T23:10:55.529Z,2.30
2022-11-27T23:13:21.999Z,2.80
2022-11-27T23:15:48.432Z,1.80
2022-11-27T23:18:15.069Z,1.50
2022-11-27T23:20:42.519Z,2.03
2022-11-27T23:23:09.453Z,1.63
2022-11-27T23:25:35.987Z,2.30
2022-11-27T23:28:02.604Z,2.13
2022-11-27T23:30:29.326Z,1.83
2022-11-27T23:32:55.761Z,2.53
2022-11-27T23:35:22.166Z,1.70
2022-11-27T23:37:48.581Z,2.00
2022-11-27T23:40:15.254Z,1.63
2022-11-27T23:42:42.779Z,1.80
2022-11-27T23:45:09.608Z,2.03
2022-11-27T23:47:36.036Z,1.73
2022-11-27T23:50:02.501Z,2.57
2022-11-27T23:52:28.951Z,1.60
2022-11-27T23:54:55.371Z,1.90
2022-11-27T23:57:21.974Z,2.40
2022-11-27T23:59:48.642Z,1.70
